sensor_id;sensor_type;location;lat;lon;timestamp;pressure;altitude;pressure_sealevel;temperature;humidity
32033;BME280;31720;52.638;9.216;2023-11-18T00:01:45;102126.03;;;3.60;100.00
32033;BME280;31720;52.638;9.216;2023-11-18T00:04:48;102132.97;;;3.60;100.00
32033;BME280;31720;52.638;9.216;2023-11-18T00:07:49;102124.31;;;3.56;100.00
32033;BME280;31720;52.638;9.216;2023-11-18T00:10:51;102126.03;;;3.55;100.00
32033;BME280;31720;52.638;9.216;2023-11-18T00:13:52;102122.56;;;3.52;100.00
32033;BME280;31720;52.638;9.216;2023-11-18T00:16:54;102121.72;;;3.45;100.00
32033;BME280;31720;52.638;9.216;2023-11-18T00:19:56;102131.25;;;3.40;100.00
32033;BME280;31720;52.638;9.216;2023-11-18T00:22:58;102114.81;;;3.30;100.00
32033;BME280;31720;52.638;9.216;2023-11-18T00:25:59;102129.53;;;3.24;100.00
32033;BME280;31720;52.638;9.216;2023-11-18T00:29:01;102129.53;;;3.21;100.00
32033;BME280;31720;52.638;9.216;2023-11-18T00:32:03;102129.53;;;3.22;100.00
32033;BME280;31720;52.638;9.216;2023-11-18T00:35:07;102127.81;;;3.12;100.00
32033;BME280;31720;52.638;9.216;2023-11-18T00:38:08;102129.56;;;3.10;100.00
32033;BME280;31720;52.638;9.216;2023-11-18T00:41:10;102133.88;;;3.08;100.00
32033;BME280;31720;52.638;9.216;2023-11-18T00:44:12;102131.28;;;2.97;100.00
32033;BME280;31720;52.638;9.216;2023-11-18T00:47:14;102144.25;;;2.94;100.00
32033;BME280;31720;52.638;9.216;2023-11-18T00:50:17;102146.84;;;2.99;100.00
32033;BME280;31720;52.638;9.216;2023-11-18T00:53:19;102152.94;;;3.01;100.00
32033;BME280;31720;52.638;9.216;2023-11-18T00:56:20;102154.66;;;3.05;100.00
32033;BME280;31720;52.638;9.216;2023-11-18T00:59:21;102163.31;;;3.10;100.00
32033;BME280;31720;52.638;9.216;2023-11-18T01:02:23;102165.91;;;3.15;100.00
32033;BME280;31720;52.638;9.216;2023-11-18T01:05:26;102166.75;;;3.03;100.00
32033;BME280;31720;52.638;9.216;2023-11-18T01:08:27;102175.44;;;2.91;100.00
32033;BME280;31720;52.638;9.216;2023-11-18T01:11:28;102174.56;;;2.88;100.00
32033;BME280;31720;52.638;9.216;2023-11-18T01:14:30;102171.09;;;2.96;100.00
32033;BME280;31720;52.638;9.216;2023-11-18T01:17:31;102175.44;;;3.05;100.00
32033;BME280;31720;52.638;9.216;2023-11-18T01:20:34;102186.69;;;3.16;100.00
32033;BME280;31720;52.638;9.216;2023-11-18T01:23:35;102184.06;;;3.22;100.00
32033;BME280;31720;52.638;9.216;2023-11-18T01:26:37;102189.28;;;3.30;100.00
32033;BME280;31720;52.638;9.216;2023-11-18T01:29:38;102193.63;;;3.37;100.00
32033;BME280;31720;52.638;9.216;2023-11-18T01:32:40;102198.81;;;3.25;100.00
32033;BME280;31720;52.638;9.216;2023-11-18T01:35:43;102198.81;;;3.29;100.00
32033;BME280;31720;52.638;9.216;2023-11-18T01:38:44;102197.94;;;3.34;100.00
32033;BME280;31720;52.638;9.216;2023-11-18T01:41:46;102204.00;;;3.40;100.00
32033;BME280;31720;52.638;9.216;2023-11-18T01:44:49;102200.53;;;3.49;100.00
32033;BME280;31720;52.638;9.216;2023-11-18T01:47:51;102206.59;;;3.52;100.00
32033;BME280;31720;52.638;9.216;2023-11-18T01:50:55;102200.56;;;3.55;100.00
32033;BME280;31720;52.638;9.216;2023-11-18T01:53:59;102198.81;;;3.55;100.00
32033;BME280;31720;52.638;9.216;2023-11-18T01:57:01;102204.88;;;3.61;100.00
32033;BME280;31720;52.638;9.216;2023-11-18T02:00:07;102197.91;;;3.63;100.00
32033;BME280;31720;52.638;9.216;2023-11-18T02:03:11;102202.25;;;3.67;100.00
32033;BME280;31720;52.638;9.216;2023-11-18T02:06:14;102195.31;;;3.73;100.00
32033;BME280;31720;52.638;9.216;2023-11-18T02:09:17;102193.59;;;3.78;100.00
32033;BME280;31720;52.638;9.216;2023-11-18T02:12:23;102198.75;;;3.77;100.00
32033;BME280;31720;52.638;9.216;2023-11-18T02:15:29;102190.09;;;3.79;100.00
32033;BME280;31720;52.638;9.216;2023-11-18T02:18:32;102199.66;;;3.82;100.00
32033;BME280;31720;52.638;9.216;2023-11-18T02:21:36;102195.31;;;3.83;100.00
32033;BME280;31720;52.638;9.216;2023-11-18T02:24:38;102190.09;;;3.84;100.00
32033;BME280;31720;52.638;9.216;2023-11-18T02:27:42;102186.66;;;3.77;100.00
32033;BME280;31720;52.638;9.216;2023-11-18T02:30:44;102189.25;;;3.74;100.00
32033;BME280;31720;52.638;9.216;2023-11-18T02:33:51;102204.88;;;3.68;100.00
32033;BME280;31720;52.638;9.216;2023-11-18T02:36:57;102194.47;;;3.65;100.00
32033;BME280;31720;52.638;9.216;2023-11-18T02:40:03;102193.59;;;3.71;100.00
32033;BME280;31720;52.638;9.216;2023-11-18T02:43:10;102187.50;;;3.72;100.00
32033;BME280;31720;52.638;9.216;2023-11-18T02:46:12;102187.50;;;3.76;100.00
32033;BME280;31720;52.638;9.216;2023-11-18T02:49:14;102179.72;;;3.75;100.00
32033;BME280;31720;52.638;9.216;2023-11-18T02:52:15;102177.97;;;3.78;100.00
32033;BME280;31720;52.638;9.216;2023-11-18T02:55:17;102171.91;;;3.78;100.00
32033;BME280;31720;52.638;9.216;2023-11-18T02:58:20;102174.50;;;3.79;100.00
32033;BME280;31720;52.638;9.216;2023-11-18T03:01:21;102177.06;;;3.86;100.00
32033;BME280;31720;52.638;9.216;2023-11-18T03:04:25;102175.34;;;3.91;100.00
32033;BME280;31720;52.638;9.216;2023-11-18T03:07:26;102184.00;;;3.94;100.00
32033;BME280;31720;52.638;9.216;2023-11-18T03:10:28;102185.75;;;3.92;100.00
32033;BME280;31720;52.638;9.216;2023-11-18T03:13:31;102175.34;;;4.00;100.00
32033;BME280;31720;52.638;9.216;2023-11-18T03:16:33;102181.38;;;4.06;100.00
32033;BME280;31720;52.638;9.216;2023-11-18T03:19:34;102185.66;;;4.12;100.00
32033;BME280;31720;52.638;9.216;2023-11-18T03:22:35;102196.09;;;4.14;100.00
32033;BME280;31720;52.638;9.216;2023-11-18T03:25:37;102196.97;;;4.14;100.00
32033;BME280;31720;52.638;9.216;2023-11-18T03:28:41;102205.59;;;4.18;100.00
32033;BME280;31720;52.638;9.216;2023-11-18T03:31:42;102198.66;;;4.20;100.00
32033;BME280;31720;52.638;9.216;2023-11-18T03:34:44;102202.97;;;4.22;100.00
32033;BME280;31720;52.638;9.216;2023-11-18T03:37:46;102200.38;;;4.18;100.00
32033;BME280;31720;52.638;9.216;2023-11-18T03:40:47;102197.81;;;4.16;100.00
32033;BME280;31720;52.638;9.216;2023-11-18T03:43:50;102191.69;;;4.22;100.00
32033;BME280;31720;52.638;9.216;2023-11-18T03:46:52;102189.09;;;4.26;100.00
32033;BME280;31720;52.638;9.216;2023-11-18T03:49:53;102189.09;;;4.28;100.00
32033;BME280;31720;52.638;9.216;2023-11-18T03:52:55;102185.63;;;4.29;100.00
32033;BME280;31720;52.638;9.216;2023-11-18T03:55:56;102189.06;;;4.34;100.00
32033;BME280;31720;52.638;9.216;2023-11-18T03:58:59;102186.44;;;4.36;100.00
32033;BME280;31720;52.638;9.216;2023-11-18T04:02:00;102183.84;;;4.36;100.00
32033;BME280;31720;52.638;9.216;2023-11-18T04:05:02;102182.97;;;4.35;100.00
32033;BME280;31720;52.638;9.216;2023-11-18T04:08:04;102178.63;;;4.39;100.00
32033;BME280;31720;52.638;9.216;2023-11-18T04:11:06;102179.50;;;4.41;100.00
32033;BME280;31720;52.638;9.216;2023-11-18T04:14:09;102177.75;;;4.41;100.00
32033;BME280;31720;52.638;9.216;2023-11-18T04:17:10;102177.75;;;4.41;100.00
32033;BME280;31720;52.638;9.216;2023-11-18T04:20:12;102175.16;;;4.41;100.00
32033;BME280;31720;52.638;9.216;2023-11-18T04:23:16;102176.88;;;4.42;100.00
32033;BME280;31720;52.638;9.216;2023-11-18T04:26:18;102173.41;;;4.43;100.00
32033;BME280;31720;52.638;9.216;2023-11-18T04:29:21;102171.69;;;4.42;100.00
32033;BME280;31720;52.638;9.216;2023-11-18T04:32:23;102172.56;;;4.41;100.00
32033;BME280;31720;52.638;9.216;2023-11-18T04:35:24;102167.34;;;4.41;100.00
32033;BME280;31720;52.638;9.216;2023-11-18T04:38:26;102162.16;;;4.38;100.00
32033;BME280;31720;52.638;9.216;2023-11-18T04:41:27;102161.28;;;4.38;100.00
32033;BME280;31720;52.638;9.216;2023-11-18T04:44:30;102156.94;;;4.38;100.00
32033;BME280;31720;52.638;9.216;2023-11-18T04:47:32;102156.94;;;4.35;100.00
32033;BME280;31720;52.638;9.216;2023-11-18T04:50:33;102156.09;;;4.36;100.00
32033;BME280;31720;52.638;9.216;2023-11-18T04:53:35;102155.19;;;4.39;100.00
32033;BME280;31720;52.638;9.216;2023-11-18T04:56:37;102149.13;;;4.43;100.00
32033;BME280;31720;52.638;9.216;2023-11-18T04:59:40;102157.75;;;4.48;100.00
32033;BME280;31720;52.638;9.216;2023-11-18T05:02:41;102169.03;;;4.51;100.00
32033;BME280;31720;52.638;9.216;2023-11-18T05:05:43;102160.31;;;4.54;100.00
32033;BME280;31720;52.638;9.216;2023-11-18T05:08:44;102161.19;;;4.56;100.00
32033;BME280;31720;52.638;9.216;2023-11-18T05:11:46;102149.06;;;4.55;100.00
32033;BME280;31720;52.638;9.216;2023-11-18T05:14:48;102148.16;;;4.57;100.00
32033;BME280;31720;52.638;9.216;2023-11-18T05:17:50;102141.22;;;4.60;100.00
32033;BME280;31720;52.638;9.216;2023-11-18T05:20:52;102135.13;;;4.61;100.00
32033;BME280;31720;52.638;9.216;2023-11-18T05:23:54;102137.72;;;4.62;100.00
32033;BME280;31720;52.638;9.216;2023-11-18T05:26:55;102137.72;;;4.64;100.00
32033;BME280;31720;52.638;9.216;2023-11-18T05:29:58;102129.91;;;4.65;100.00
32033;BME280;31720;52.638;9.216;2023-11-18T05:33:02;102135.94;;;4.67;100.00
32033;BME280;31720;52.638;9.216;2023-11-18T05:36:05;102136.84;;;4.65;100.00
32033;BME280;31720;52.638;9.216;2023-11-18T05:39:06;102129.03;;;4.65;100.00
32033;BME280;31720;52.638;9.216;2023-11-18T05:42:09;102118.63;;;4.62;100.00
32033;BME280;31720;52.638;9.216;2023-11-18T05:45:12;102117.75;;;4.63;100.00
32033;BME280;31720;52.638;9.216;2023-11-18T05:48:18;102120.38;;;4.61;100.00
32033;BME280;31720;52.638;9.216;2023-11-18T05:51:21;102115.19;;;4.53;100.00
32033;BME280;31720;52.638;9.216;2023-11-18T05:54:23;102118.66;;;4.57;100.00
32033;BME280;31720;52.638;9.216;2023-11-18T05:57:24;102116.94;;;4.56;100.00
32033;BME280;31720;52.638;9.216;2023-11-18T06:00:28;102110.94;;;4.46;100.00
32033;BME280;31720;52.638;9.216;2023-11-18T06:03:30;102115.25;;;4.47;100.00
32033;BME280;31720;52.638;9.216;2023-11-18T06:06:32;102120.47;;;4.44;100.00
32033;BME280;31720;52.638;9.216;2023-11-18T06:09:33;102122.22;;;4.42;100.00
32033;BME280;31720;52.638;9.216;2023-11-18T06:12:35;102126.56;;;4.40;100.00
32033;BME280;31720;52.638;9.216;2023-11-18T06:15:38;102130.00;;;4.47;100.00
32033;BME280;31720;52.638;9.216;2023-11-18T06:18:41;102118.75;;;4.43;100.00
32033;BME280;31720;52.638;9.216;2023-11-18T06:21:44;102129.19;;;4.39;100.00
32033;BME280;31720;52.638;9.216;2023-11-18T06:24:46;102130.91;;;4.40;100.00
32033;BME280;31720;52.638;9.216;2023-11-18T06:27:47;102134.38;;;4.42;100.00
32033;BME280;31720;52.638;9.216;2023-11-18T06:30:51;102126.56;;;4.39;100.00
32033;BME280;31720;52.638;9.216;2023-11-18T06:33:53;102127.47;;;4.36;100.00
32033;BME280;31720;52.638;9.216;2023-11-18T06:36:54;102127.47;;;4.38;100.00
32033;BME280;31720;52.638;9.216;2023-11-18T06:39:56;102133.53;;;4.37;100.00
32033;BME280;31720;52.638;9.216;2023-11-18T06:42:57;102130.94;;;4.35;100.00
32033;BME280;31720;52.638;9.216;2023-11-18T06:46:03;102145.69;;;4.38;100.00
32033;BME280;31720;52.638;9.216;2023-11-18T06:49:05;102151.75;;;4.41;100.00
32033;BME280;31720;52.638;9.216;2023-11-18T06:52:07;102150.00;;;4.39;100.00
32033;BME280;31720;52.638;9.216;2023-11-18T06:55:14;102149.13;;;4.40;100.00
32033;BME280;31720;52.638;9.216;2023-11-18T06:58:15;102146.53;;;4.41;100.00
32033;BME280;31720;52.638;9.216;2023-11-18T07:01:18;102146.47;;;4.49;100.00
32033;BME280;31720;52.638;9.216;2023-11-18T07:04:19;102146.50;;;4.47;100.00
32033;BME280;31720;52.638;9.216;2023-11-18T07:07:21;102146.47;;;4.50;100.00
32033;BME280;31720;52.638;9.216;2023-11-18T07:10:22;102150.78;;;4.53;100.00
32033;BME280;31720;52.638;9.216;2023-11-18T07:13:23;102154.25;;;4.55;100.00
32033;BME280;31720;52.638;9.216;2023-11-18T07:16:26;102149.88;;;4.60;100.00
32033;BME280;31720;52.638;9.216;2023-11-18T07:19:28;102141.19;;;4.63;100.00
32033;BME280;31720;52.638;9.216;2023-11-18T07:22:29;102137.69;;;4.67;100.00
32033;BME280;31720;52.638;9.216;2023-11-18T07:25:31;102138.56;;;4.66;100.00
32033;BME280;31720;52.638;9.216;2023-11-18T07:28:34;102142.91;;;4.67;100.00
32033;BME280;31720;52.638;9.216;2023-11-18T07:31:37;102144.63;;;4.66;100.00
32033;BME280;31720;52.638;9.216;2023-11-18T07:34:38;102147.22;;;4.68;100.00
32033;BME280;31720;52.638;9.216;2023-11-18T07:37:41;102139.41;;;4.69;100.00
32033;BME280;31720;52.638;9.216;2023-11-18T07:40:42;102130.69;;;4.72;100.00
32033;BME280;31720;52.638;9.216;2023-11-18T07:43:45;102146.34;;;4.73;100.00
32033;BME280;31720;52.638;9.216;2023-11-18T07:46:49;102154.13;;;4.72;100.00
32033;BME280;31720;52.638;9.216;2023-11-18T07:49:50;102152.44;;;4.69;100.00
32033;BME280;31720;52.638;9.216;2023-11-18T07:52:51;102143.75;;;4.70;100.00
32033;BME280;31720;52.638;9.216;2023-11-18T07:55:53;102142.84;;;4.71;100.00
32033;BME280;31720;52.638;9.216;2023-11-18T07:58:54;102134.16;;;4.72;100.00
32033;BME280;31720;52.638;9.216;2023-11-18T08:01:57;102130.66;;;4.76;100.00
32033;BME280;31720;52.638;9.216;2023-11-18T08:04:58;102129.00;;;4.69;100.00
32033;BME280;31720;52.638;9.216;2023-11-18T08:08:00;102123.78;;;4.71;100.00
32033;BME280;31720;52.638;9.216;2023-11-18T08:11:01;102114.22;;;4.74;100.00
32033;BME280;31720;52.638;9.216;2023-11-18T08:14:03;102109.88;;;4.70;100.00
32033;BME280;31720;52.638;9.216;2023-11-18T08:17:06;102104.66;;;4.75;100.00
32033;BME280;31720;52.638;9.216;2023-11-18T08:20:08;102108.13;;;4.77;100.00
32033;BME280;31720;52.638;9.216;2023-11-18T08:23:14;102108.97;;;4.79;100.00
32033;BME280;31720;52.638;9.216;2023-11-18T08:26:15;102109.78;;;4.87;100.00
32033;BME280;31720;52.638;9.216;2023-11-18T08:29:16;102113.19;;;4.95;100.00
32033;BME280;31720;52.638;9.216;2023-11-18T08:32:19;102098.41;;;4.97;100.00
32033;BME280;31720;52.638;9.216;2023-11-18T08:35:21;102107.91;;;5.04;100.00
32033;BME280;31720;52.638;9.216;2023-11-18T08:38:22;102111.34;;;5.06;100.00
32033;BME280;31720;52.638;9.216;2023-11-18T08:41:24;102101.78;;;5.10;100.00
32033;BME280;31720;52.638;9.216;2023-11-18T08:44:25;102120.84;;;5.12;100.00
32033;BME280;31720;52.638;9.216;2023-11-18T08:47:28;102112.09;;;5.19;100.00
32033;BME280;31720;52.638;9.216;2023-11-18T08:50:32;102105.13;;;5.23;100.00
32033;BME280;31720;52.638;9.216;2023-11-18T08:53:33;102102.44;;;5.30;100.00
32033;BME280;31720;52.638;9.216;2023-11-18T08:56:41;102098.03;;;5.35;100.00
32033;BME280;31720;52.638;9.216;2023-11-18T08:59:42;102093.72;;;5.36;100.00
32033;BME280;31720;52.638;9.216;2023-11-18T09:02:46;102099.72;;;5.40;100.00
32033;BME280;31720;52.638;9.216;2023-11-18T09:05:47;102091.09;;;5.38;100.00
32033;BME280;31720;52.638;9.216;2023-11-18T09:08:56;102095.38;;;5.40;100.00
32033;BME280;31720;52.638;9.216;2023-11-18T09:11:58;102097.09;;;5.46;100.00
32033;BME280;31720;52.638;9.216;2023-11-18T09:14:59;102096.28;;;5.41;100.00
32033;BME280;31720;52.638;9.216;2023-11-18T09:18:05;102092.00;;;5.33;100.00
32033;BME280;31720;52.638;9.216;2023-11-18T09:21:10;102091.09;;;5.36;100.00
32033;BME280;31720;52.638;9.216;2023-11-18T09:24:14;102084.19;;;5.30;100.00
32033;BME280;31720;52.638;9.216;2023-11-18T09:27:19;102077.22;;;5.32;100.00
32033;BME280;31720;52.638;9.216;2023-11-18T09:30:21;102072.91;;;5.31;100.00
32033;BME280;31720;52.638;9.216;2023-11-18T09:33:26;102069.44;;;5.29;100.00
32033;BME280;31720;52.638;9.216;2023-11-18T09:36:32;102057.16;;;5.39;100.00
32033;BME280;31720;52.638;9.216;2023-11-18T09:39:34;102064.84;;;5.54;100.00
32033;BME280;31720;52.638;9.216;2023-11-18T09:42:38;102062.97;;;5.63;100.00
32033;BME280;31720;52.638;9.216;2023-11-18T09:45:40;102071.59;;;5.72;100.00
32033;BME280;31720;52.638;9.216;2023-11-18T09:48:46;102058.50;;;5.75;100.00
32033;BME280;31720;52.638;9.216;2023-11-18T09:51:48;102056.75;;;5.77;100.00
32033;BME280;31720;52.638;9.216;2023-11-18T09:54:58;102041.94;;;5.78;100.00
32033;BME280;31720;52.638;9.216;2023-11-18T09:58:04;102048.78;;;5.85;100.00
32033;BME280;31720;52.638;9.216;2023-11-18T10:01:13;102044.34;;;5.96;100.00
32033;BME280;31720;52.638;9.216;2023-11-18T10:04:20;102049.47;;;6.02;100.00
32033;BME280;31720;52.638;9.216;2023-11-18T10:07:22;102051.19;;;6.05;100.00
32033;BME280;31720;52.638;9.216;2023-11-18T10:10:27;102042.47;;;6.06;100.00
32033;BME280;31720;52.638;9.216;2023-11-18T10:13:36;102045.88;;;6.11;100.00
32033;BME280;31720;52.638;9.216;2023-11-18T10:16:41;102044.88;;;6.20;100.00
32033;BME280;31720;52.638;9.216;2023-11-18T10:19:54;102030.88;;;6.25;100.00
32033;BME280;31720;52.638;9.216;2023-11-18T10:23:05;102026.44;;;6.30;100.00
32033;BME280;31720;52.638;9.216;2023-11-18T10:26:09;102016.00;;;6.32;100.00
32033;BME280;31720;52.638;9.216;2023-11-18T10:29:11;102009.03;;;6.32;100.00
32033;BME280;31720;52.638;9.216;2023-11-18T10:32:13;102008.22;;;6.29;100.00
32033;BME280;31720;52.638;9.216;2023-11-18T10:35:21;102005.50;;;6.37;100.00
32033;BME280;31720;52.638;9.216;2023-11-18T10:38:23;102005.38;;;6.43;100.00
32033;BME280;31720;52.638;9.216;2023-11-18T10:41:26;102005.41;;;6.41;100.00
32033;BME280;31720;52.638;9.216;2023-11-18T10:44:31;101991.44;;;6.44;100.00
32033;BME280;31720;52.638;9.216;2023-11-18T10:47:32;101980.22;;;6.39;100.00
32033;BME280;31720;52.638;9.216;2023-11-18T10:50:36;101974.97;;;6.39;100.00
32033;BME280;31720;52.638;9.216;2023-11-18T10:53:39;101962.75;;;6.42;100.00
32033;BME280;31720;52.638;9.216;2023-11-18T10:56:46;101959.94;;;6.53;100.00
32033;BME280;31720;52.638;9.216;2023-11-18T11:00:03;101970.19;;;6.65;100.00
32033;BME280;31720;52.638;9.216;2023-11-18T11:03:13;101959.63;;;6.71;100.00
32033;BME280;31720;52.638;9.216;2023-11-18T11:06:16;101957.78;;;6.76;100.00
32033;BME280;31720;52.638;9.216;2023-11-18T11:09:19;101947.25;;;6.82;100.00
32033;BME280;31720;52.638;9.216;2023-11-18T11:12:25;101942.03;;;6.82;100.00
32033;BME280;31720;52.638;9.216;2023-11-18T11:15:30;101929.78;;;6.86;100.00
32033;BME280;31720;52.638;9.216;2023-11-18T11:18:33;101927.03;;;6.92;100.00
32033;BME280;31720;52.638;9.216;2023-11-18T11:21:45;101912.22;;;6.93;100.00
32033;BME280;31720;52.638;9.216;2023-11-18T11:25:02;101917.28;;;7.00;100.00
32033;BME280;31720;52.638;9.216;2023-11-18T11:28:15;101900.94;;;6.89;100.00
32033;BME280;31720;52.638;9.216;2023-11-18T11:31:21;101899.28;;;6.85;100.00
32033;BME280;31720;52.638;9.216;2023-11-18T11:34:26;101896.72;;;6.83;100.00
32033;BME280;31720;52.638;9.216;2023-11-18T11:37:32;101909.91;;;6.77;100.00
32033;BME280;31720;52.638;9.216;2023-11-18T11:40:35;101908.16;;;6.76;100.00
32033;BME280;31720;52.638;9.216;2023-11-18T11:43:38;101901.22;;;6.77;100.00
32033;BME280;31720;52.638;9.216;2023-11-18T11:46:41;101897.75;;;6.75;100.00
32033;BME280;31720;52.638;9.216;2023-11-18T11:49:49;101882.06;;;6.75;100.00
32033;BME280;31720;52.638;9.216;2023-11-18T11:53:03;101860.22;;;6.79;100.00
32033;BME280;31720;52.638;9.216;2023-11-18T11:56:07;101865.31;;;6.85;100.00
32033;BME280;31720;52.638;9.216;2023-11-18T11:59:15;101858.41;;;6.82;100.00
32033;BME280;31720;52.638;9.216;2023-11-18T12:02:16;101846.25;;;6.80;100.00
32033;BME280;31720;52.638;9.216;2023-11-18T12:05:18;101852.38;;;6.79;100.00
32033;BME280;31720;52.638;9.216;2023-11-18T12:08:22;101852.28;;;6.83;100.00
32033;BME280;31720;52.638;9.216;2023-11-18T12:11:23;101850.47;;;6.87;100.00
32033;BME280;31720;52.638;9.216;2023-11-18T12:14:27;101850.19;;;7.01;100.00
32033;BME280;31720;52.638;9.216;2023-11-18T12:18:09;101847.78;;;6.92;100.00
32033;BME280;31720;52.638;9.216;2023-11-18T12:28:35;101829.59;;;6.85;100.00
32033;BME280;31720;52.638;9.216;2023-11-18T12:31:41;101823.59;;;6.82;100.00
32033;BME280;31720;52.638;9.216;2023-11-18T12:34:49;101832.31;;;6.81;100.00
32033;BME280;31720;52.638;9.216;2023-11-18T12:38:19;101845.34;;;6.81;100.00
32033;BME280;31720;52.638;9.216;2023-11-18T12:41:34;101837.63;;;6.76;100.00
32033;BME280;31720;52.638;9.216;2023-11-18T12:44:52;101835.00;;;6.76;100.00
32033;BME280;31720;52.638;9.216;2023-11-18T12:48:05;101831.63;;;6.73;100.00
32033;BME280;31720;52.638;9.216;2023-11-18T12:51:12;101825.63;;;6.66;100.00
32033;BME280;31720;52.638;9.216;2023-11-18T12:54:20;101828.16;;;6.71;100.00
32033;BME280;31720;52.638;9.216;2023-11-18T12:57:26;101826.44;;;6.70;100.00
32033;BME280;31720;52.638;9.216;2023-11-18T13:00:32;101821.19;;;6.71;100.00
32033;BME280;31720;52.638;9.216;2023-11-18T13:03:35;101810.81;;;6.67;100.00
32033;BME280;31720;52.638;9.216;2023-11-18T13:06:37;101811.75;;;6.64;100.00
32033;BME280;31720;52.638;9.216;2023-11-18T13:09:39;101819.56;;;6.66;100.00
32033;BME280;31720;52.638;9.216;2023-11-18T13:12:43;101815.28;;;6.61;100.00
32033;BME280;31720;52.638;9.216;2023-11-18T13:15:48;101815.31;;;6.60;100.00
32033;BME280;31720;52.638;9.216;2023-11-18T13:18:50;101818.66;;;6.67;100.00
32033;BME280;31720;52.638;9.216;2023-11-18T13:21:57;101815.19;;;6.68;100.00
32033;BME280;31720;52.638;9.216;2023-11-18T13:25:00;101805.69;;;6.62;100.00
32033;BME280;31720;52.638;9.216;2023-11-18T13:28:03;101790.13;;;6.57;100.00
32033;BME280;31720;52.638;9.216;2023-11-18T13:31:07;101781.41;;;6.57;100.00
32033;BME280;31720;52.638;9.216;2023-11-18T13:34:09;101772.72;;;6.56;100.00
32033;BME280;31720;52.638;9.216;2023-11-18T13:37:11;101757.13;;;6.53;100.00
32033;BME280;31720;52.638;9.216;2023-11-18T13:40:17;101737.06;;;6.54;100.00
32033;BME280;31720;52.638;9.216;2023-11-18T13:43:19;101729.34;;;6.49;100.00
32033;BME280;31720;52.638;9.216;2023-11-18T13:46:24;101728.47;;;6.50;100.00
32033;BME280;31720;52.638;9.216;2023-11-18T13:49:27;101716.28;;;6.49;100.00
32033;BME280;31720;52.638;9.216;2023-11-18T13:52:29;101721.59;;;6.46;100.00
32033;BME280;31720;52.638;9.216;2023-11-18T13:55:31;101715.50;;;6.46;100.00
32033;BME280;31720;52.638;9.216;2023-11-18T13:58:33;101722.50;;;6.45;100.00
32033;BME280;31720;52.638;9.216;2023-11-18T14:01:35;101724.25;;;6.43;100.00
32033;BME280;31720;52.638;9.216;2023-11-18T14:04:39;101713.78;;;6.45;100.00
32033;BME280;31720;52.638;9.216;2023-11-18T14:07:43;101699.94;;;6.41;100.00
32033;BME280;31720;52.638;9.216;2023-11-18T14:10:46;101682.72;;;6.31;100.00
32033;BME280;31720;52.638;9.216;2023-11-18T14:13:47;101672.22;;;6.34;100.00
32033;BME280;31720;52.638;9.216;2023-11-18T14:16:50;101669.56;;;6.35;100.00
32033;BME280;31720;52.638;9.216;2023-11-18T14:19:53;101666.97;;;6.35;100.00
32033;BME280;31720;52.638;9.216;2023-11-18T14:22:54;101652.19;;;6.36;100.00
32033;BME280;31720;52.638;9.216;2023-11-18T14:25:56;101666.00;;;6.40;100.00
32033;BME280;31720;52.638;9.216;2023-11-18T14:28:58;101672.09;;;6.40;100.00
32033;BME280;31720;52.638;9.216;2023-11-18T14:32:01;101683.41;;;6.41;100.00
32033;BME280;31720;52.638;9.216;2023-11-18T14:35:04;101676.44;;;6.41;100.00
32033;BME280;31720;52.638;9.216;2023-11-18T14:38:09;101679.00;;;6.43;100.00
32033;BME280;31720;52.638;9.216;2023-11-18T14:41:13;101672.94;;;6.42;100.00
32033;BME280;31720;52.638;9.216;2023-11-18T14:44:15;101670.31;;;6.42;100.00
32033;BME280;31720;52.638;9.216;2023-11-18T14:47:19;101676.41;;;6.43;100.00
32033;BME280;31720;52.638;9.216;2023-11-18T14:50:21;101672.09;;;6.40;100.00
32033;BME280;31720;52.638;9.216;2023-11-18T14:53:25;101671.28;;;6.38;100.00
32033;BME280;31720;52.638;9.216;2023-11-18T14:56:27;101656.53;;;6.35;100.00
32033;BME280;31720;52.638;9.216;2023-11-18T14:59:29;101656.47;;;6.39;100.00
32033;BME280;31720;52.638;9.216;2023-11-18T15:02:32;101636.59;;;6.33;100.00
32033;BME280;31720;52.638;9.216;2023-11-18T15:05:34;101660.22;;;6.25;100.00
32033;BME280;31720;52.638;9.216;2023-11-18T15:08:37;101668.19;;;6.19;100.00
32033;BME280;31720;52.638;9.216;2023-11-18T15:11:39;101656.13;;;6.14;100.00
32033;BME280;31720;52.638;9.216;2023-11-18T15:14:41;101641.34;;;6.13;100.00
32033;BME280;31720;52.638;9.216;2023-11-18T15:17:45;101645.78;;;6.09;100.00
32033;BME280;31720;52.638;9.216;2023-11-18T15:20:49;101638.94;;;6.03;100.00
32033;BME280;31720;52.638;9.216;2023-11-18T15:23:52;101627.72;;;6.00;100.00
32033;BME280;31720;52.638;9.216;2023-11-18T15:26:55;101635.69;;;5.91;100.00
32033;BME280;31720;52.638;9.216;2023-11-18T15:29:58;101615.69;;;5.91;100.00
32033;BME280;31720;52.638;9.216;2023-11-18T15:33:05;101618.38;;;5.85;100.00
32033;BME280;31720;52.638;9.216;2023-11-18T15:36:09;101617.53;;;5.86;100.00
32033;BME280;31720;52.638;9.216;2023-11-18T15:39:11;101608.91;;;5.82;100.00
32033;BME280;31720;52.638;9.216;2023-11-18T15:42:14;101605.44;;;5.80;100.00
32033;BME280;31720;52.638;9.216;2023-11-18T15:45:17;101593.34;;;5.78;100.00
32033;BME280;31720;52.638;9.216;2023-11-18T15:48:20;101592.50;;;5.76;100.00
32033;BME280;31720;52.638;9.216;2023-11-18T15:51:23;101599.53;;;5.71;100.00
32033;BME280;31720;52.638;9.216;2023-11-18T15:54:26;101601.34;;;5.69;100.00
32033;BME280;31720;52.638;9.216;2023-11-18T15:57:28;101599.63;;;5.66;100.00
32033;BME280;31720;52.638;9.216;2023-11-18T16:00:30;101586.56;;;5.68;100.00
32033;BME280;31720;52.638;9.216;2023-11-18T16:03:33;101580.44;;;5.70;100.00
32033;BME280;31720;52.638;9.216;2023-11-18T16:06:34;101574.31;;;5.71;100.00